• Join FlightAware (Why Join?)
  • Login
  • US Flag 
04:00PM EDT


 

Airport Tracker/Info


-or-


 

Live Flight TrackerFlight Track Log ✈ SWA1008 ✈ 10-Jul-2013 ✈ KFLL - KMCI

Flight Track Log - Related Links

Times and Time Zones

All times are in EDT time to prevent confusion due to time zone crossing. See the SWA1008 flight status page for this flight to view local times or setup timezone preferences in your user account.

Time Position Orientation Groundspeed Altitude Reporting Facility
EDT Latitude Longitude Course Direction KTS MPH feet Rate Location/Type
01:23PM 26.0750 -80.1367 89° East 119 137 700  Level Miami Center
01:24PM 26.0756 -80.1111 89° East 183 211 1,500 1,560 Climbing Miami Center
01:24PM 26.0847 -80.0722 75° East 206 237 2,600 1,980 Climbing Miami Center
01:25PM 26.1394 -80.0528 18° North 276 318 4,900 2,220 Climbing Miami Center
01:26PM 26.2053 -80.0986 328° Northwest 305 351 7,100 2,760 Climbing Miami Center
01:27PM 26.2731 -80.1514 325° Northwest 305 351 10,500 2,760 Climbing Miami Center
01:28PM 26.3531 -80.2117 326° Northwest 330 380 12,700 2,820 Climbing Miami Center
01:29PM 26.4433 -80.2883 323° Northwest 360 414 16,200 2,940 Climbing Miami Center
01:30PM 26.5167 -80.3578 320° Northwest 380 437 18,600 2,400 Climbing Miami Center
01:31PM 26.6086 -80.4464 319° Northwest 395 455 21,100 2,160 Climbing Miami Center
01:32PM 26.6883 -80.5211 320° Northwest 401 461 23,000 1,020 Climbing Miami Center
01:33PM 26.7881 -80.6172 319° Northwest 412 474 23,200 960 Climbing Miami Center
01:34PM 26.8778 -80.7039 319° Northwest 422 486 25,000 1,740 Climbing Miami Center
01:35PM 26.9756 -80.7956 320° Northwest 433 498 26,700 1,620 Climbing Miami Center
01:36PM 27.0692 -80.8850 320° Northwest 443 510 28,300 1,500 Climbing Miami Center
01:37PM 27.1708 -80.9819 320° Northwest 454 522 29,700 1,200 Climbing Miami Center
01:38PM 27.2519 -81.0619 319° Northwest 472 543 30,800 1,560 Climbing Miami Center
01:39PM 27.3739 -81.1764 320° Northwest 477 549 32,900 1,860 Climbing Miami Center
01:40PM 27.4711 -81.2711 319° Northwest 477 549 34,600 1,560 Climbing Miami Center
01:41PM 27.5703 -81.3686 319° Northwest 472 543 36,100 1,440 Climbing Miami Center
01:42PM 27.6675 -81.4617 320° Northwest 472 543 37,500 900 Climbing Miami Center
01:43PM 27.7647 -81.5547 320° Northwest 466 536 38,000 240 Climbing Miami Center
01:44PM 27.8639 -81.6528 319° Northwest 466 536 38,000  Level Miami Center
01:46PM 28.0539 -81.8342 320° Northwest 475 547 38,000  Level Jacksonville Center
01:47PM 28.1506 -81.9297 319° Northwest 470 541 38,000  Level Jacksonville Center
01:48PM 28.2472 -82.0256 319° Northwest 465 535 38,000  Level Jacksonville Center
01:49PM 28.3458 -82.1214 319° Northwest 465 535 38,000  Level Jacksonville Center
01:50PM 28.4403 -82.2175 318° Northwest 465 535 38,000  Level Jacksonville Center
01:51PM 28.5283 -82.3042 319° Northwest 465 535 38,000  Level Jacksonville Center
01:52PM 28.6289 -82.3936 322° Northwest 465 535 38,000  Level Jacksonville Center
01:53PM 28.7336 -82.4617 330° Northwest 449 517 38,000  Level Jacksonville Center
01:54PM 28.8403 -82.5347 329° Northwest 449 517 38,000  Level Jacksonville Center
01:55PM 28.9489 -82.6056 330° Northwest 444 511 38,000  Level Jacksonville Center
01:56PM 29.0533 -82.6789 328° Northwest 444 511 38,000  Level Jacksonville Center
01:57PM 29.1578 -82.7500 329° Northwest 444 511 38,000  Level Jacksonville Center
01:58PM 29.2644 -82.8211 330° Northwest 449 517 38,000  Level Jacksonville Center
01:59PM 29.3708 -82.8950 329° Northwest 449 517 38,000  Level Jacksonville Center
02:00PM 29.4731 -82.9667 329° Northwest 449 517 38,000  Level Jacksonville Center
02:01PM 29.5817 -83.0406 329° Northwest 455 524 38,000  Level Jacksonville Center
02:02PM 29.6881 -83.1125 330° Northwest 441 507 38,000  Level Jacksonville Center
02:03PM 29.7964 -83.1750 333° Northwest 436 502 38,000  Level Jacksonville Center
02:04PM 29.9050 -83.2328 335° Northwest 436 502 38,000  Level Jacksonville Center
02:05PM 30.0258 -83.3053 333° Northwest 436 502 38,000  Level Jacksonville Center
02:06PM 30.1319 -83.3681 333° Northwest 431 496 38,000  Level Jacksonville Center
02:07PM 30.2425 -83.4336 333° Northwest 431 496 38,000  Level Jacksonville Center
02:08PM 30.3486 -83.5017 331° Northwest 431 496 38,000  Level Jacksonville Center
02:09PM 30.4589 -83.5675 333° Northwest 431 496 38,000  Level Jacksonville Center
02:10PM 30.5650 -83.6333 332° Northwest 436 502 38,000  Level Jacksonville Center
02:11PM 30.6775 -83.6994 333° Northwest 436 502 38,000  Level Jacksonville Center
02:12PM 30.7856 -83.7631 333° Northwest 436 502 38,000  Level Jacksonville Center
02:13PM 30.8811 -83.8222 332° Northwest 431 496 38,000  Level Jacksonville Center
02:14PM 30.9914 -83.8836 334° Northwest 431 496 38,000  Level Jacksonville Center
02:17PM 31.2458 -84.0339 333° Northwest 428 493 38,000  Level Atlanta Center
02:18PM 31.3542 -84.0997 333° Northwest 433 498 38,000  Level Atlanta Center
02:19PM 31.4647 -84.1631 334° Northwest 433 498 38,000  Level Atlanta Center
02:20PM 31.5753 -84.2267 334° Northwest 433 498 38,000  Level Atlanta Center
02:21PM 31.6881 -84.2878 335° Northwest 433 498 38,000  Level Atlanta Center
02:22PM 31.8089 -84.3542 335° Northwest 433 498 38,000  Level Atlanta Center
02:23PM 31.9214 -84.4181 334° Northwest 433 498 38,000  Level Atlanta Center
02:24PM 32.0339 -84.4775 336° Northwest 433 498 38,000  Level Atlanta Center
02:25PM 32.1422 -84.5392 334° Northwest 433 498 38,000  Level Atlanta Center
02:26PM 32.2483 -84.6111 330° Northwest 438 504 38,000  Level Atlanta Center
02:27PM 32.3356 -84.7172 314° West 447 514 38,000  Level Atlanta Center
02:28PM 32.4203 -84.8264 313° West 447 514 38,000  Level Atlanta Center
02:29PM 32.4969 -84.9156 316° Northwest 437 503 38,000  Level Atlanta Center
02:30PM 32.5839 -85.0250 313° West 437 503 38,000  Level Atlanta Center
02:31PM 32.6706 -85.1344 313° West 445 512 38,000  Level Atlanta Center
02:32PM 32.7511 -85.2417 312° West 451 519 38,000  Level Atlanta Center
02:33PM 32.8394 -85.3714 309° West 451 519 38,000  Level Atlanta Center
02:34PM 32.9012 -85.4891 302° West  Level FlightAware Approximate
02:35PM 32.9850 -85.6039 302° West 445 512 38,000  Level Atlanta Center
02:36PM 33.0606 -85.7217 307° West 445 512 38,000  Level Atlanta Center
02:37PM 33.1339 -85.8447 305° West 451 519 38,000  Level Atlanta Center
02:38PM 33.2008 -85.9728 302° West 440 506 38,000  Level Atlanta Center
02:39PM 33.2697 -86.1033 302° West 458 527 38,000  Level Atlanta Center
02:40PM 33.3450 -86.2172 308° West 463 533 38,000  Level Atlanta Center
02:41PM 33.4200 -86.3408 306° West 463 533 38,000  Level Atlanta Center
02:42PM 33.4847 -86.4522 305° West 463 533 38,000  Level Atlanta Center
02:43PM 33.5594 -86.5739 306° West 456 525 38,000  Level Atlanta Center
02:44PM 33.6319 -86.6958 306° West 456 525 38,000  Level Atlanta Center
02:45PM 33.7086 -86.8181 307° West 456 525 38,000 480 Level Atlanta Center
02:46PM 33.8403 -87.0411 305° West 469 540 39,300 720 Climbing Memphis Center
02:47PM 33.9147 -87.1658 306° West 460 529 40,000 300 Climbing Memphis Center
02:48PM 33.9883 -87.2758 309° West 455 524 40,000  Level Memphis Center
02:49PM 34.0644 -87.3986 307° West 450 518 40,000  Level Memphis Center
02:50PM 34.1381 -87.5214 306° West 445 512 40,000  Level Memphis Center
02:51PM 34.2119 -87.6469 305° West 451 519 40,000  Level Memphis Center
02:52PM 34.2856 -87.7706 306° West 451 519 40,000  Level Memphis Center
02:53PM 34.3611 -87.8939 307° West 457 526 40,000  Level Memphis Center
02:54PM 34.4364 -88.0178 306° West 462 532 40,000  Level Memphis Center
02:55PM 34.5078 -88.1442 304° West 459 528 40,000  Level Memphis Center
02:56PM 34.5744 -88.2636 304° West 471 542 40,000  Level Memphis Center
02:57PM 34.6494 -88.3881 306° West 464 534 40,000  Level Memphis Center
02:58PM 34.7222 -88.5075 307° West 458 527 40,000  Level Memphis Center
02:59PM 34.7950 -88.6325 305° West 447 514 40,000  Level Memphis Center
03:00PM 34.8675 -88.7575 305° West 447 514 40,000  Level Memphis Center
03:01PM 34.9400 -88.8803 306° West 447 514 40,000  Level Memphis Center
03:02PM 35.0125 -89.0083 305° West 452 520 40,000  Level Memphis Center
03:03PM 35.0867 -89.1314 306° West 452 520 40,000  Level Memphis Center
03:04PM 35.1589 -89.2572 305° West 452 520 40,000  Level Memphis Center
03:05PM 35.2331 -89.3833 306° West 457 526 40,000  Level Memphis Center
03:06PM 35.3047 -89.5125 304° West 457 526 40,000  Level Memphis Center
03:07PM 35.3786 -89.6364 306° West 457 526 40,000  Level Memphis Center
03:08PM 35.4503 -89.7683 304° West 462 532 40,000  Level Memphis Center
03:09PM 35.5281 -89.9081 304° West 462 532 40,000  Level Memphis Center
03:10PM 35.5994 -90.0378 304° West 462 532 40,000  Level Memphis Center
03:11PM 35.6706 -90.1653 304° West 462 532 40,000  Level Memphis Center
03:12PM 35.7333 -90.2931 301° West 453 521 40,000  Level Memphis Center
03:13PM 35.8042 -90.4236 304° West 453 521 40,000  Level Memphis Center
03:14PM 35.8750 -90.5492 305° West 453 521 40,000  Level Memphis Center
03:15PM 35.9433 -90.6750 304° West 453 521 40,000  Level Memphis Center
03:16PM 36.0161 -90.8061 304° West 459 528 40,000  Level Memphis Center
03:17PM 36.0844 -90.9297 304° West 459 528 40,000  Level Memphis Center
03:18PM 36.1544 -91.0614 303° West 459 528 40,000  Level Memphis Center
03:19PM 36.2247 -91.1881 305° West 459 528 40,000  Level Memphis Center
03:20PM 36.2967 -91.3122 306° West 459 528 40,000  Level Memphis Center
03:21PM 36.3669 -91.4111 311° West 454 522 40,000  Level Memphis Center
03:22PM 36.4514 -91.5206 314° West 441 507 40,000  Level Memphis Center
03:24PM 36.6175 -91.7258 315° West 440 506 40,000  Level Kansas City Center
03:25PM 36.7022 -91.8367 314° West 441 507 40,000  Level Kansas City Center
03:26PM 36.7867 -91.9475 314° West 441 507 40,000  Level Kansas City Center
03:27PM 36.8700 -92.0600 313° West 439 505 40,000  Level Kansas City Center
03:28PM 36.9711 -92.1911 314° West 437 503 40,000  Level Kansas City Center
03:29PM 37.0536 -92.3033 313° West 436 502 40,000  Level Kansas City Center
03:30PM 37.1364 -92.4156 313° West 437 503 40,000  Level Kansas City Center
03:31PM 37.2189 -92.5269 313° West 435 501 40,000  Level Kansas City Center
03:32PM 37.3011 -92.6392 313° West 434 499 40,000  Level Kansas City Center
03:33PM 37.3839 -92.7494 313° West 432 497 40,000  Level Kansas City Center
03:34PM 37.4656 -92.8614 313° West 430 495 40,000  Level Kansas City Center
03:35PM 37.5472 -92.9725 313° West 429 494 40,000 -420 Level Kansas City Center
03:36PM 37.6467 -93.1078 313° West 432 497 39,200 -900 Descending Kansas City Center
03:37PM 37.7283 -93.2208 312° West 433 498 38,200 -1,260 Descending Kansas City Center
03:38PM 37.8119 -93.3353 313° West 438 504 36,700 -2,220 Descending Kansas City Center
03:40PM 37.8947 -93.4503 312° West 438 504 33,700 -3,060 Descending Kansas City Center
03:41PM 37.9781 -93.5667 312° West 442 509 30,400 -3,060 Descending Kansas City Center
03:42PM 38.0617 -93.6822 313° West 443 510 27,400 -2,700 Descending Kansas City Center
03:43PM 38.1503 -93.7794 319° Northwest 422 486 24,900 -2,700 Descending Kansas City Center
03:44PM 38.2758 -93.8503 336° Northwest 407 468 21,900 -2,580 Descending Kansas City Center
03:45PM 38.3767 -93.9064 336° Northwest 397 457 19,600 -2,220 Descending Kansas City Center
03:46PM 38.4714 -93.9631 335° Northwest 382 440 17,300 -2,280 Descending Kansas City Center
03:47PM 38.5658 -94.0147 337° Northwest 366 421 14,900 -2,280 Descending Kansas City Center
03:48PM 38.6517 -94.0650 335° Northwest 354 407 12,700 -1,800 Descending Kansas City Center
03:49PM 38.7383 -94.1414 325° Northwest 343 395 11,300 -1,200 Descending Kansas City Center
03:50PM 38.8061 -94.2139 320° Northwest 334 384 10,300 -960 Descending Kansas City Center
03:51PM 38.8664 -94.3000 312° West 286 329 9,400 -960 Descending Kansas City Center
03:52PM 38.9111 -94.3761 307° West 280 322 8,400 -1,020 Descending Kansas City Center
03:53PM 38.9619 -94.4636 307° West 273 314 7,300 -1,020 Descending Kansas City Center
03:54PM 39.0069 -94.5394 307° West 278 320 6,400 -1,020 Descending Kansas City Center
03:55PM 39.0586 -94.6269 307° West 274 315 5,200 -960 Descending Kansas City Center
03:56PM 39.1019 -94.7000 307° West 270 311 4,500 -1,200 Descending Kansas City Center
03:57PM 39.1633 -94.7497 328° Northwest 241 277 2,800 -1,020 Descending Kansas City Center
03:58PM 39.2094 -94.7308 18° North 183 211 2,400 -600 Descending Kansas City Center
03:59PM 39.2525 -94.7181 13° North 145 167 1,600 -720 Descending Kansas City Center
04:00PM 39.2947 -94.7067 12° North 144 166 1,000 -600 Descending Kansas City Center
04:02PM 39.2833 -94.7000 339° North  Level FlightAware Approximate